createdAt,value
2024-01-14T00:00:44.949Z,74.80
2024-01-14T00:03:12.982Z,78.50
2024-01-14T00:05:40.987Z,71.28
2024-01-14T00:08:08.967Z,72.72
2024-01-14T00:10:36.939Z,69.68
2024-01-14T00:13:05.217Z,74.80
2024-01-14T00:15:34.552Z,70.68
2024-01-14T00:18:02.696Z,73.25
2024-01-14T00:20:30.778Z,70.72
2024-01-14T00:22:58.971Z,76.20
2024-01-14T00:25:27.000Z,72.65
2024-01-14T00:27:54.988Z,76.65
2024-01-14T00:30:23.170Z,75.32
2024-01-14T00:32:52.531Z,72.32
2024-01-14T00:35:20.688Z,72.95
2024-01-14T00:37:49.618Z,76.18
2024-01-14T00:40:17.576Z,82.47
2024-01-14T00:42:45.463Z,74.97
2024-01-14T00:45:13.579Z,71.63
2024-01-14T00:47:41.535Z,74.57
2024-01-14T00:50:11.581Z,70.75
2024-01-14T00:52:39.540Z,72.68
2024-01-14T00:55:10.340Z,70.00
2024-01-14T00:57:38.493Z,68.68
2024-01-14T01:00:10.416Z,76.90
2024-01-14T01:02:38.471Z,69.32
2024-01-14T01:05:07.090Z,65.63
2024-01-14T01:07:36.532Z,70.97
2024-01-14T01:10:04.854Z,66.85
2024-01-14T01:12:32.953Z,66.00
2024-01-14T01:15:01.623Z,69.18
2024-01-14T01:17:29.908Z,69.03
2024-01-14T01:19:57.845Z,66.68
2024-01-14T01:22:25.840Z,63.05
2024-01-14T01:24:55.727Z,65.65
2024-01-14T01:27:23.765Z,65.72
2024-01-14T01:29:51.976Z,64.10
2024-01-14T01:32:20.130Z,65.60
2024-01-14T01:34:48.566Z,62.50
2024-01-14T01:37:16.991Z,64.93
2024-01-14T01:39:44.919Z,60.67
2024-01-14T01:42:14.219Z,64.43
2024-01-14T01:44:42.194Z,68.28
2024-01-14T01:47:10.385Z,69.82
2024-01-14T01:49:39.034Z,60.33
2024-01-14T01:52:07.610Z,61.40
2024-01-14T01:54:37.641Z,61.72
2024-01-14T01:57:06.956Z,67.20
2024-01-14T01:59:36.543Z,59.25
2024-01-14T02:02:06.321Z,61.80
2024-01-14T02:04:34.376Z,62.45
2024-01-14T02:07:03.682Z,56.35
2024-01-14T02:09:32.271Z,61.90
2024-01-14T02:12:01.757Z,59.20
2024-01-14T02:14:29.715Z,55.15
2024-01-14T02:16:59.053Z,56.90
2024-01-14T02:19:27.104Z,53.17
2024-01-14T02:22:01.008Z,54.00
2024-01-14T02:24:32.404Z,52.92
2024-01-14T02:27:00.569Z,52.92
2024-01-14T02:29:29.863Z,52.47
2024-01-14T02:31:57.819Z,53.80
2024-01-14T02:34:26.017Z,57.45
2024-01-14T02:36:54.090Z,53.80
2024-01-14T02:39:22.242Z,59.30
2024-01-14T02:41:51.906Z,57.60
2024-01-14T02:44:19.994Z,56.33
2024-01-14T02:46:47.886Z,51.80
2024-01-14T02:49:16.001Z,56.80
2024-01-14T02:51:46.435Z,56.13
2024-01-14T02:54:14.522Z,57.67
2024-01-14T02:56:42.480Z,59.25
2024-01-14T02:59:11.884Z,61.95
2024-01-14T03:01:45.179Z,57.10
2024-01-14T03:04:13.258Z,59.75
2024-01-14T03:06:41.291Z,59.42
2024-01-14T03:09:09.415Z,62.42
2024-01-14T03:11:37.423Z,63.13
2024-01-14T03:14:05.522Z,61.13
2024-01-14T03:16:34.893Z,62.90
2024-01-14T03:19:03.212Z,55.08
2024-01-14T03:21:31.617Z,53.45
2024-01-14T03:23:59.590Z,53.95
2024-01-14T03:26:27.516Z,54.67
2024-01-14T03:28:55.393Z,53.85
2024-01-14T03:31:23.376Z,60.58
2024-01-14T03:33:52.873Z,54.53
2024-01-14T03:36:20.917Z,61.80
2024-01-14T03:38:48.989Z,61.25
2024-01-14T03:41:17.155Z,55.67
2024-01-14T03:43:45.292Z,56.53
2024-01-14T03:46:13.278Z,50.78
2024-01-14T03:48:41.312Z,60.53
2024-01-14T03:51:10.790Z,55.88
2024-01-14T03:53:38.846Z,60.72
2024-01-14T03:56:07.147Z,56.88
2024-01-14T03:58:35.088Z,56.03
2024-01-14T04:01:03.052Z,59.58
2024-01-14T04:03:31.096Z,54.72
2024-01-14T04:05:59.844Z,56.08
2024-01-14T04:08:29.197Z,62.53
2024-01-14T04:10:57.173Z,54.80
2024-01-14T04:13:25.120Z,52.05
2024-01-14T04:15:53.186Z,52.58
2024-01-14T04:18:21.175Z,51.40
2024-01-14T04:20:49.354Z,54.38
2024-01-14T04:23:17.615Z,50.63
2024-01-14T04:25:47.189Z,50.42
2024-01-14T04:28:15.114Z,52.13
2024-01-14T04:30:43.236Z,50.45
2024-01-14T04:33:11.542Z,50.10
2024-01-14T04:35:39.541Z,50.45
2024-01-14T04:38:07.690Z,57.42
2024-01-14T04:40:35.996Z,49.38
2024-01-14T04:43:07.194Z,50.00
2024-01-14T04:45:36.048Z,51.10
2024-01-14T04:48:04.433Z,51.08
2024-01-14T04:50:32.658Z,55.40
2024-01-14T04:53:00.709Z,57.30
2024-01-14T04:55:28.685Z,53.83
2024-01-14T04:57:56.684Z,48.88
2024-01-14T05:00:26.629Z,47.30
2024-01-14T05:02:54.586Z,43.83
2024-01-14T05:05:22.584Z,43.80
2024-01-14T05:07:50.578Z,46.75
2024-01-14T05:10:18.727Z,49.17
2024-01-14T05:12:46.744Z,49.53
2024-01-14T05:15:14.719Z,45.60
2024-01-14T05:17:44.286Z,51.00
2024-01-14T05:20:12.841Z,46.13
2024-01-14T05:22:41.116Z,45.72
2024-01-14T05:25:09.427Z,47.63
2024-01-14T05:27:38.095Z,46.17
2024-01-14T05:30:06.800Z,53.08
2024-01-14T05:32:34.849Z,48.22
2024-01-14T05:35:04.373Z,55.33
2024-01-14T05:37:32.587Z,48.30
2024-01-14T05:40:01.184Z,44.65
2024-01-14T05:42:29.422Z,43.70
2024-01-14T05:44:57.724Z,51.63
2024-01-14T05:47:25.747Z,45.33
2024-01-14T05:49:54.725Z,42.97
2024-01-14T05:52:24.162Z,46.20
2024-01-14T05:54:52.199Z,43.40
2024-01-14T05:57:20.243Z,46.45
2024-01-14T05:59:48.366Z,46.17
2024-01-14T06:02:16.398Z,45.13
2024-01-14T06:04:44.540Z,45.25
2024-01-14T06:07:12.723Z,45.90
2024-01-14T06:09:42.116Z,45.05
2024-01-14T06:12:10.192Z,43.80
2024-01-14T06:14:38.372Z,45.88
2024-01-14T06:17:06.312Z,43.55
2024-01-14T06:19:34.450Z,47.97
2024-01-14T06:22:02.852Z,43.92
2024-01-14T06:24:30.859Z,41.72
2024-01-14T06:27:00.295Z,45.28
2024-01-14T06:29:28.223Z,42.40
2024-01-14T06:31:56.253Z,46.97
2024-01-14T06:34:24.260Z,46.17
2024-01-14T06:36:52.280Z,42.88
2024-01-14T06:39:20.775Z,39.67
2024-01-14T06:41:51.014Z,43.67
2024-01-14T06:44:20.623Z,39.15
2024-01-14T06:46:49.524Z,44.97
2024-01-14T06:49:17.687Z,39.67
2024-01-14T06:51:46.042Z,44.60
2024-01-14T06:54:14.257Z,39.88
2024-01-14T06:56:46.207Z,40.97
2024-01-14T06:59:16.124Z,43.05
2024-01-14T07:01:45.597Z,37.92
2024-01-14T07:04:13.920Z,49.20
2024-01-14T07:06:42.438Z,47.05
2024-01-14T07:09:12.438Z,40.45
2024-01-14T07:11:40.650Z,42.80
2024-01-14T07:14:08.923Z,42.70
2024-01-14T07:16:37.818Z,44.15
2024-01-14T07:19:07.410Z,42.25
2024-01-14T07:21:35.668Z,37.65
2024-01-14T07:24:04.397Z,42.67
2024-01-14T07:26:32.396Z,45.22
2024-01-14T07:29:00.400Z,42.60
2024-01-14T07:31:29.976Z,47.30
2024-01-14T07:33:58.544Z,44.47
2024-01-14T07:36:28.107Z,44.03
2024-01-14T07:38:56.681Z,43.22
2024-01-14T07:41:24.632Z,43.58
2024-01-14T07:43:53.159Z,41.35
2024-01-14T07:46:21.778Z,41.88
2024-01-14T07:48:50.106Z,41.92
2024-01-14T07:51:19.179Z,43.25
2024-01-14T07:53:50.542Z,41.92
2024-01-14T07:56:18.628Z,39.03
2024-01-14T07:58:46.557Z,37.70
2024-01-14T08:01:14.721Z,43.00
2024-01-14T08:03:42.861Z,43.63
2024-01-14T08:06:11.267Z,45.08
2024-01-14T08:08:39.231Z,46.10
2024-01-14T08:11:08.586Z,44.30
2024-01-14T08:13:36.628Z,43.40
2024-01-14T08:16:04.913Z,41.17
2024-01-14T08:18:33.700Z,40.00
2024-01-14T08:21:02.070Z,46.78
2024-01-14T08:23:33.532Z,46.95
2024-01-14T08:26:03.164Z,56.85
2024-01-14T08:28:34.199Z,57.35
2024-01-14T08:31:02.329Z,53.38
2024-01-14T08:33:31.207Z,51.30
2024-01-14T08:35:59.856Z,46.83
2024-01-14T08:38:27.888Z,47.75
2024-01-14T08:40:55.750Z,50.53
2024-01-14T08:43:23.739Z,48.10
2024-01-14T08:45:53.062Z,50.53
2024-01-14T08:48:21.132Z,50.05
2024-01-14T08:50:49.678Z,47.60
2024-01-14T08:53:17.609Z,48.03
2024-01-14T08:55:45.569Z,48.58
2024-01-14T08:58:13.998Z,46.10
2024-01-14T09:00:42.377Z,56.50
2024-01-14T09:03:11.969Z,53.70
2024-01-14T09:05:40.179Z,51.03
2024-01-14T09:08:08.272Z,51.92
2024-01-14T09:10:36.288Z,51.50
2024-01-14T09:13:04.426Z,50.97
2024-01-14T09:15:32.410Z,53.05
2024-01-14T09:18:00.632Z,56.10
2024-01-14T09:20:30.432Z,45.95
2024-01-14T09:22:58.374Z,51.00
2024-01-14T09:25:26.331Z,49.80
2024-01-14T09:27:54.237Z,48.75
2024-01-14T09:30:22.338Z,49.63
2024-01-14T09:32:50.338Z,44.38
2024-01-14T09:35:18.381Z,48.17
2024-01-14T09:37:47.710Z,49.55
2024-01-14T09:40:18.077Z,44.90
2024-01-14T09:42:47.322Z,48.33
2024-01-14T09:45:15.548Z,45.17
2024-01-14T09:47:44.457Z,42.53
2024-01-14T09:50:12.984Z,28.98
2024-01-14T09:52:43.018Z,24.98
2024-01-14T09:55:12.752Z,24.73
2024-01-14T09:57:43.251Z,20.33
2024-01-14T10:00:12.428Z,22.88
2024-01-14T10:02:40.447Z,21.23
2024-01-14T10:05:09.526Z,20.85
2024-01-14T10:07:40.084Z,19.35
2024-01-14T10:10:09.250Z,22.38
2024-01-14T10:12:39.378Z,20.50
2024-01-14T10:15:08.225Z,18.80
2024-01-14T10:17:36.283Z,18.30
2024-01-14T10:20:04.388Z,19.25
2024-01-14T10:22:32.327Z,19.88
2024-01-14T10:25:00.355Z,18.65
2024-01-14T10:27:35.714Z,20.08
2024-01-14T10:30:12.590Z,23.90
2024-01-14T10:33:16.138Z,21.20
2024-01-14T10:35:31.027Z,20.20
2024-01-14T10:37:59.577Z,22.85
2024-01-14T10:40:28.023Z,18.83
2024-01-14T10:42:56.387Z,22.98
2024-01-14T10:45:26.029Z,29.08
2024-01-14T10:47:59.098Z,28.15
2024-01-14T10:50:37.997Z,35.00
2024-01-14T10:53:16.942Z,34.40
2024-01-14T10:55:50.218Z,33.92
2024-01-14T10:58:26.701Z,37.30
2024-01-14T11:01:00.297Z,34.80
2024-01-14T11:03:29.861Z,33.65
2024-01-14T11:05:58.515Z,33.83
2024-01-14T11:08:26.593Z,34.85
2024-01-14T11:10:56.151Z,32.53
2024-01-14T11:13:28.143Z,36.72
2024-01-14T11:16:05.546Z,34.53
2024-01-14T11:18:38.355Z,31.38
2024-01-14T11:21:36.733Z,33.83
2024-01-14T11:24:13.013Z,36.00
2024-01-14T11:26:41.159Z,33.13
2024-01-14T11:29:09.034Z,32.70
2024-01-14T11:32:09.403Z,34.15
2024-01-14T11:35:01.711Z,34.63
2024-01-14T11:37:45.790Z,32.88
2024-01-14T11:40:33.838Z,31.27
2024-01-14T11:43:07.697Z,32.13
2024-01-14T11:45:40.332Z,31.63
2024-01-14T11:48:14.304Z,29.60
2024-01-14T11:50:43.305Z,33.10
2024-01-14T11:53:12.360Z,24.80
2024-01-14T11:55:43.071Z,28.30
2024-01-14T11:58:18.670Z,19.63
2024-01-14T12:00:52.150Z,15.48
2024-01-14T12:03:22.344Z,17.20
2024-01-14T12:05:51.640Z,14.70
2024-01-14T12:08:21.897Z,21.52
2024-01-14T12:10:50.544Z,14.65
2024-01-14T12:13:18.898Z,15.23
2024-01-14T12:15:55.430Z,14.55
2024-01-14T12:18:45.912Z,18.33
2024-01-14T12:21:23.895Z,16.63
2024-01-14T12:23:59.541Z,23.67
2024-01-14T12:26:27.662Z,24.52
2024-01-14T12:28:55.659Z,27.00
2024-01-14T12:31:29.337Z,25.95
2024-01-14T12:34:05.075Z,27.58
2024-01-14T12:36:38.560Z,26.35
2024-01-14T12:39:14.001Z,24.65
2024-01-14T12:41:49.311Z,24.00
2024-01-14T12:44:23.160Z,22.83
2024-01-14T12:46:55.122Z,26.27
2024-01-14T12:52:00.886Z,23.85
2024-01-14T12:54:28.993Z,25.50
2024-01-14T12:57:02.620Z,28.17
2024-01-14T12:59:32.241Z,24.38
2024-01-14T13:02:02.309Z,27.50
2024-01-14T13:04:31.954Z,24.75
2024-01-14T13:07:00.360Z,25.02
2024-01-14T13:09:28.637Z,24.58
2024-01-14T13:11:57.051Z,27.75
2024-01-14T13:14:29.860Z,26.58
2024-01-14T13:16:58.056Z,26.90
2024-01-14T13:19:26.193Z,28.50
2024-01-14T13:22:08.943Z,25.90
2024-01-14T13:24:37.970Z,24.77
2024-01-14T13:27:06.658Z,25.63
2024-01-14T13:29:35.820Z,26.30
2024-01-14T13:32:04.525Z,25.88
2024-01-14T13:34:36.388Z,31.00
2024-01-14T13:37:08.149Z,23.65
2024-01-14T13:39:36.321Z,24.17
2024-01-14T13:42:04.561Z,25.02
2024-01-14T13:44:32.496Z,25.95
2024-01-14T13:47:00.430Z,29.73
2024-01-14T13:49:29.434Z,22.90
2024-01-14T13:51:57.946Z,21.80
2024-01-14T13:54:27.319Z,23.48
2024-01-14T13:56:56.560Z,22.98
2024-01-14T13:59:24.695Z,24.98
2024-01-14T14:01:53.085Z,24.25
2024-01-14T14:04:26.465Z,22.85
2024-01-14T14:09:23.473Z,25.92
2024-01-14T14:11:52.863Z,25.40
2024-01-14T14:14:23.009Z,23.58
2024-01-14T14:16:52.077Z,24.65
2024-01-14T14:19:20.241Z,23.63
2024-01-14T14:21:58.128Z,24.42
2024-01-14T14:24:28.832Z,22.48
2024-01-14T14:26:58.328Z,22.90
2024-01-14T14:29:29.235Z,23.00
2024-01-14T14:31:57.855Z,24.02
2024-01-14T14:34:27.349Z,24.25
2024-01-14T14:36:56.061Z,20.63
2024-01-14T14:39:24.774Z,24.05
2024-01-14T14:41:52.867Z,21.50
2024-01-14T14:44:22.329Z,24.50
2024-01-14T14:46:50.871Z,22.90
2024-01-14T14:49:19.471Z,24.65
2024-01-14T14:51:47.872Z,24.10
2024-01-14T14:54:15.944Z,26.83
2024-01-14T14:56:44.409Z,22.40
2024-01-14T14:59:12.386Z,25.10
2024-01-14T15:01:44.410Z,26.00
2024-01-14T15:04:15.881Z,27.02
2024-01-14T15:06:45.875Z,27.17
2024-01-14T15:09:15.525Z,27.80
2024-01-14T15:11:44.018Z,28.17
2024-01-14T15:14:14.707Z,26.88
2024-01-14T15:16:46.521Z,30.10
2024-01-14T15:19:14.739Z,29.25
2024-01-14T15:21:43.314Z,36.58
2024-01-14T15:24:12.034Z,30.88
2024-01-14T15:26:40.328Z,35.22
2024-01-14T15:29:08.320Z,35.88
2024-01-14T15:31:36.606Z,36.30
2024-01-14T15:34:06.657Z,37.67
2024-01-14T15:36:35.057Z,34.30
2024-01-14T15:39:04.638Z,34.30
2024-01-14T15:41:35.383Z,31.75
2024-01-14T15:44:04.130Z,40.53
2024-01-14T15:46:32.555Z,29.60
2024-01-14T15:49:01.173Z,32.60
2024-01-14T15:51:31.054Z,40.05
2024-01-14T15:53:59.535Z,37.42
2024-01-14T15:56:28.440Z,38.58
2024-01-14T15:58:56.601Z,39.35
2024-01-14T16:01:25.530Z,41.00
2024-01-14T16:03:54.220Z,35.92
2024-01-14T16:06:22.514Z,36.15
2024-01-14T16:08:51.827Z,36.88
2024-01-14T16:11:20.450Z,37.13
2024-01-14T16:13:48.540Z,38.65
2024-01-14T16:16:16.683Z,37.92
2024-01-14T16:18:45.201Z,41.83
2024-01-14T16:21:13.756Z,43.67
2024-01-14T16:23:42.017Z,46.38
2024-01-14T16:26:11.631Z,47.13
2024-01-14T16:28:40.894Z,49.80
2024-01-14T16:31:13.189Z,48.30
2024-01-14T16:33:44.980Z,49.00
2024-01-14T16:36:20.882Z,46.65
2024-01-14T16:38:49.936Z,50.88
2024-01-14T16:41:20.043Z,45.47
2024-01-14T16:43:49.110Z,46.90
2024-01-14T16:46:20.089Z,52.97
2024-01-14T16:48:48.473Z,50.55
2024-01-14T16:51:17.126Z,52.47
2024-01-14T16:53:46.359Z,48.95
2024-01-14T16:56:15.984Z,45.65
2024-01-14T16:58:46.562Z,50.30
2024-01-14T17:01:18.262Z,51.40
2024-01-14T17:03:49.784Z,50.25
2024-01-14T17:06:19.246Z,49.15
2024-01-14T17:08:48.118Z,51.78
2024-01-14T17:11:20.472Z,57.50
2024-01-14T17:13:51.385Z,60.33
2024-01-14T17:16:25.310Z,57.75
2024-01-14T17:18:56.592Z,51.17
2024-01-14T17:21:24.919Z,52.92
2024-01-14T17:23:53.207Z,46.67
2024-01-14T17:26:22.682Z,47.35
2024-01-14T17:28:52.393Z,50.10
2024-01-14T17:31:22.050Z,51.05
2024-01-14T17:33:53.773Z,51.75
2024-01-14T17:36:23.508Z,50.17
2024-01-14T17:38:52.055Z,53.78
2024-01-14T17:41:20.610Z,53.63
2024-01-14T17:43:48.923Z,59.33
2024-01-14T17:46:22.039Z,58.78
2024-01-14T17:48:52.129Z,63.92
2024-01-14T17:51:22.691Z,60.25
2024-01-14T17:53:52.602Z,58.15
2024-01-14T17:56:21.627Z,66.28
2024-01-14T17:58:50.189Z,65.75
2024-01-14T18:01:20.077Z,67.38
2024-01-14T18:03:48.585Z,71.07
2024-01-14T18:06:18.758Z,60.40
2024-01-14T18:08:47.685Z,65.97
2024-01-14T18:11:16.026Z,65.63
2024-01-14T18:13:44.554Z,66.38
2024-01-14T18:16:13.182Z,65.93
2024-01-14T18:18:44.910Z,67.82
2024-01-14T18:21:17.454Z,59.53
2024-01-14T18:23:45.876Z,66.30
2024-01-14T18:26:15.779Z,56.55
2024-01-14T18:28:44.353Z,59.97
2024-01-14T18:31:17.231Z,65.65
2024-01-14T18:33:48.303Z,59.22
2024-01-14T18:36:17.209Z,63.75
2024-01-14T18:38:45.853Z,55.45
2024-01-14T18:41:14.121Z,64.45
2024-01-14T18:43:42.880Z,64.45
2024-01-14T18:46:12.224Z,64.70
2024-01-14T18:48:40.675Z,61.40
2024-01-14T18:51:11.830Z,63.90
2024-01-14T18:53:40.421Z,68.82
2024-01-14T18:56:09.495Z,66.72
2024-01-14T18:58:37.958Z,57.90
2024-01-14T19:01:08.660Z,66.97
2024-01-14T19:03:39.126Z,66.60
2024-01-14T19:06:09.161Z,61.75
2024-01-14T19:08:40.056Z,72.18
2024-01-14T19:11:09.908Z,74.68
2024-01-14T19:13:39.146Z,69.60
2024-01-14T19:16:11.188Z,72.20
2024-01-14T19:18:40.809Z,66.13
2024-01-14T19:21:11.357Z,66.57
2024-01-14T19:23:44.697Z,65.72
2024-01-14T19:26:14.091Z,64.88
2024-01-14T19:28:42.302Z,65.55
2024-01-14T19:31:12.036Z,59.13
2024-01-14T19:33:42.671Z,66.30
2024-01-14T19:36:14.145Z,67.88
2024-01-14T19:38:44.708Z,66.85
2024-01-14T19:41:14.964Z,71.22
2024-01-14T19:43:43.754Z,81.85
2024-01-14T19:46:12.515Z,80.57
2024-01-14T19:48:42.695Z,77.93
2024-01-14T19:51:13.464Z,72.47
2024-01-14T19:53:44.543Z,68.97
2024-01-14T19:56:14.660Z,70.05
2024-01-14T19:58:44.069Z,64.68
2024-01-14T20:01:14.292Z,68.85
2024-01-14T20:03:50.075Z,69.32
2024-01-14T20:06:27.800Z,70.53
2024-01-14T20:09:00.207Z,60.53
2024-01-14T20:11:30.829Z,64.55
2024-01-14T20:14:04.634Z,73.32
2024-01-14T20:16:34.250Z,70.90
2024-01-14T20:19:05.167Z,62.10
2024-01-14T20:21:34.790Z,64.75
2024-01-14T20:24:07.985Z,62.10
2024-01-14T20:26:37.548Z,69.85
2024-01-14T20:29:09.708Z,62.03
2024-01-14T20:31:39.720Z,57.28
2024-01-14T20:34:09.203Z,57.03
2024-01-14T20:36:39.846Z,60.40
2024-01-14T20:39:10.808Z,62.40
2024-01-14T20:41:40.744Z,55.65
2024-01-14T20:44:12.244Z,59.17
2024-01-14T20:46:41.958Z,59.63
2024-01-14T20:49:13.927Z,61.60
2024-01-14T20:51:43.776Z,57.45
2024-01-14T20:54:13.846Z,68.03
2024-01-14T20:56:42.043Z,75.07
2024-01-14T20:59:11.232Z,68.13
2024-01-14T21:01:39.503Z,63.05
2024-01-14T21:04:07.855Z,59.60
2024-01-14T21:06:36.855Z,61.85
2024-01-14T21:09:05.408Z,58.53
2024-01-14T21:11:34.811Z,61.17
2024-01-14T21:14:03.139Z,59.30
2024-01-14T21:16:31.327Z,63.75
2024-01-14T21:19:02.856Z,62.08
2024-01-14T21:21:31.102Z,61.45
2024-01-14T21:24:00.816Z,58.03
2024-01-14T21:26:29.138Z,61.55
2024-01-14T21:29:03.288Z,55.67
2024-01-14T21:31:31.452Z,54.25
2024-01-14T21:33:59.791Z,52.53
2024-01-14T21:36:27.972Z,53.17
2024-01-14T21:38:56.077Z,60.03
2024-01-14T21:41:24.221Z,62.28
2024-01-14T21:43:52.197Z,59.13
2024-01-14T21:46:21.865Z,61.13
2024-01-14T21:48:50.018Z,57.78
2024-01-14T21:51:19.323Z,59.88
2024-01-14T21:53:50.401Z,64.13
2024-01-14T21:56:18.353Z,63.67
2024-01-14T21:58:46.362Z,60.50
2024-01-14T22:01:14.413Z,59.28
2024-01-14T22:03:43.843Z,59.35
2024-01-14T22:06:11.949Z,64.45
2024-01-14T22:08:40.239Z,63.60
2024-01-14T22:11:08.401Z,65.93
2024-01-14T22:13:36.626Z,68.32
2024-01-14T22:16:05.108Z,65.95
2024-01-14T22:18:33.379Z,65.80
2024-01-14T22:21:03.434Z,57.63
2024-01-14T22:23:31.414Z,64.55
2024-01-14T22:27:28.825Z,64.97
2024-01-14T22:33:53.880Z,73.97
2024-01-14T22:36:26.492Z,70.68
2024-01-14T22:38:54.611Z,78.95
2024-01-14T22:41:22.910Z,77.25
2024-01-14T22:43:51.015Z,73.50
2024-01-14T22:46:22.342Z,75.88
2024-01-14T22:48:50.563Z,79.70
2024-01-14T22:52:42.203Z,82.68
2024-01-14T22:59:03.355Z,89.30
2024-01-14T23:01:31.613Z,90.28
2024-01-14T23:03:59.800Z,82.40
2024-01-14T23:06:29.458Z,84.65
2024-01-14T23:08:57.456Z,78.13
2024-01-14T23:11:25.475Z,89.05
2024-01-14T23:13:53.620Z,83.05
2024-01-14T23:16:22.457Z,87.70
2024-01-14T23:18:50.731Z,89.10
2024-01-14T23:21:18.874Z,87.28
2024-01-14T23:23:48.833Z,81.63
2024-01-14T23:26:16.992Z,85.38
2024-01-14T23:28:44.969Z,86.82
2024-01-14T23:31:15.058Z,87.35
2024-01-14T23:33:43.310Z,78.65
2024-01-14T23:36:11.338Z,80.00
2024-01-14T23:38:39.348Z,92.10
2024-01-14T23:41:08.732Z,84.88
2024-01-14T23:43:36.703Z,82.40
2024-01-14T23:46:05.622Z,86.53
2024-01-14T23:48:33.965Z,87.25
2024-01-14T23:51:02.002Z,84.60
2024-01-14T23:53:30.094Z,76.72
2024-01-14T23:55:58.013Z,81.82
2024-01-14T23:58:27.327Z,77.72
